Time;durP1;ratioP1;P1;durP2;ratioP2;P2;SDS_P1;SDS_P2;PMS_P1;PMS_P2;Temp;Humidity;BMP_temperature;BMP_pressure;BME280_temperature;BME280_humidity;BME280_pressure;Samples;Min_cycle;Max_cycle;Signal;HPM_P1;HPM_P2
2023/12/06 00:01:55;;;;;;;0.63;0.63;;;16.50;42.20;;;;;;4973818;28;20206;-80
2023/12/06 00:04:22;;;;;;;0.80;0.80;;;16.50;42.30;;;;;;4957921;28;20212;-80
2023/12/06 00:06:51;;;;;;;0.90;0.90;;;16.40;42.10;;;;;;4975116;28;20218;-80
2023/12/06 00:09:17;;;;;;;0.73;0.73;;;16.50;42.20;;;;;;4974460;28;20194;-79
2023/12/06 00:11:44;;;;;;;0.60;0.60;;;16.50;42.30;;;;;;4974498;28;20205;-79
2023/12/06 00:14:11;;;;;;;0.77;0.77;;;16.50;42.30;;;;;;4974314;28;20608;-79
2023/12/06 00:16:39;;;;;;;0.70;0.70;;;16.50;42.30;;;;;;4958147;28;20218;-79
2023/12/06 00:19:06;;;;;;;0.73;0.73;;;16.50;42.40;;;;;;4973821;28;20199;-79
2023/12/06 00:21:33;;;;;;;0.60;0.60;;;16.50;42.30;;;;;;4973946;28;20225;-79
2023/12/06 00:24:04;;;;;;;0.77;0.77;;;16.40;42.30;;;;;;4974241;28;20202;-79
2023/12/06 00:26:31;;;;;;;0.80;0.80;;;16.50;42.30;;;;;;4974945;28;20289;-79
2023/12/06 00:28:58;;;;;;;0.80;0.80;;;16.50;42.30;;;;;;4973920;28;20567;-79
2023/12/06 00:31:25;;;;;;;0.80;0.80;;;16.50;42.30;;;;;;4958375;28;20573;-79
2023/12/06 00:33:52;;;;;;;0.63;0.63;;;16.50;42.30;;;;;;4973833;28;20213;-79
2023/12/06 00:36:19;;;;;;;1.38;0.63;;;16.50;42.30;;;;;;4973859;28;20214;-79
2023/12/06 00:38:46;;;;;;;0.70;0.70;;;16.50;42.30;;;;;;4973607;28;20672;-79
2023/12/06 00:41:14;;;;;;;0.80;0.80;;;16.50;42.30;;;;;;4973947;28;20257;-79
2023/12/06 00:43:41;;;;;;;0.60;0.60;;;16.50;42.10;;;;;;4973636;28;20205;-79
2023/12/06 00:46:08;;;;;;;0.70;0.70;;;16.50;42.10;;;;;;4973384;28;20595;-79
2023/12/06 00:48:35;;;;;;;0.60;0.60;;;16.50;42.10;;;;;;4958400;28;20237;-79
2023/12/06 00:51:02;;;;;;;0.85;0.85;;;16.50;42.30;;;;;;4973408;28;20209;-79
2023/12/06 00:53:30;;;;;;;0.70;0.65;;;16.50;42.20;;;;;;4973476;28;20206;-79
2023/12/06 00:55:56;;;;;;;0.70;0.70;;;16.50;42.30;;;;;;4974531;28;20763;-79
2023/12/06 00:58:25;;;;;;;0.80;0.80;;;16.50;42.30;;;;;;4977641;28;20198;-79
2023/12/06 01:00:52;;;;;;;0.70;0.70;;;16.50;42.30;;;;;;4977279;28;20202;-79
2023/12/06 01:03:19;;;;;;;0.50;0.50;;;16.50;42.30;;;;;;4961390;28;20240;-79
2023/12/06 01:05:47;;;;;;;0.63;0.63;;;16.50;42.30;;;;;;4977024;28;20254;-79
2023/12/06 01:08:14;;;;;;;0.77;0.77;;;16.50;42.30;;;;;;4960643;28;20296;-79
2023/12/06 01:10:43;;;;;;;0.70;0.70;;;16.50;42.30;;;;;;4976605;28;20194;-80
2023/12/06 01:13:10;;;;;;;0.55;0.55;;;16.50;42.30;;;;;;4997820;23;20250;-82
2023/12/06 01:15:39;;;;;;;0.77;0.77;;;16.50;42.30;;;;;;4972336;28;20198;-82
2023/12/06 01:18:06;;;;;;;0.65;0.65;;;16.50;42.90;;;;;;5005264;28;20198;-82
2023/12/06 01:20:34;;;;;;;0.73;0.73;;;16.50;42.30;;;;;;5004198;28;20202;-82
2023/12/06 01:23:01;;;;;;;0.70;0.70;;;16.50;42.30;;;;;;5003862;28;20221;-82
2023/12/06 01:25:28;;;;;;;0.38;0.38;;;16.40;42.20;;;;;;5002861;28;20273;-82
2023/12/06 01:27:55;;;;;;;0.68;0.68;;;16.50;42.30;;;;;;5001843;28;20707;-82
2023/12/06 01:30:22;;;;;;;0.65;0.65;;;16.50;42.30;;;;;;4996352;28;20287;-82
2023/12/06 01:32:51;;;;;;;0.80;0.80;;;16.50;42.30;;;;;;4996378;28;20197;-82
2023/12/06 01:35:18;;;;;;;0.40;0.40;;;16.50;42.30;;;;;;4996667;28;20217;-82
2023/12/06 01:37:45;;;;;;;0.70;0.70;;;16.50;42.30;;;;;;4996214;28;20198;-82
2023/12/06 01:40:12;;;;;;;0.60;0.60;;;16.50;42.30;;;;;;4996827;28;20299;-82
2023/12/06 01:42:39;;;;;;;0.50;0.50;;;16.50;42.30;;;;;;4996385;28;20327;-82
2023/12/06 01:45:06;;;;;;;0.70;0.70;;;16.50;42.30;;;;;;4997438;28;20525;-82
2023/12/06 01:47:34;;;;;;;0.60;0.60;;;16.50;42.30;;;;;;4996604;28;20229;-82
2023/12/06 01:50:04;;;;;;;0.60;0.60;;;16.50;42.30;;;;;;4996301;28;20267;-82
2023/12/06 01:52:31;;;;;;;0.38;0.38;;;16.50;42.90;;;;;;4996149;28;20197;-82
2023/12/06 01:54:58;;;;;;;0.80;0.80;;;16.50;42.40;;;;;;4996342;28;20209;-82
2023/12/06 01:57:26;;;;;;;0.63;0.63;;;16.50;42.40;;;;;;4995790;28;20217;-82
2023/12/06 01:59:53;;;;;;;0.50;0.50;;;16.50;42.40;;;;;;4996355;28;20546;-82
2023/12/06 02:02:20;;;;;;;0.50;0.50;;;16.50;42.40;;;;;;4996192;28;20623;-82
2023/12/06 02:04:48;;;;;;;0.68;0.68;;;16.50;43.00;;;;;;4996096;28;20675;-82
2023/12/06 02:07:16;;;;;;;0.70;0.70;;;16.50;42.40;;;;;;4995117;28;20304;-82
2023/12/06 02:09:44;;;;;;;1.02;0.80;;;16.50;42.40;;;;;;4995525;28;20201;-82
2023/12/06 02:12:11;;;;;;;0.50;0.50;;;16.50;42.40;;;;;;4979667;28;20197;-82
2023/12/06 02:14:38;;;;;;;0.60;0.60;;;16.50;42.40;;;;;;4995522;28;20272;-82
2023/12/06 02:17:05;;;;;;;0.70;0.70;;;16.50;42.40;;;;;;4995852;28;20221;-82
2023/12/06 02:19:32;;;;;;;0.45;0.45;;;16.50;42.40;;;;;;4995506;28;20267;-82
2023/12/06 02:21:59;;;;;;;0.50;0.50;;;16.50;42.40;;;;;;4979341;28;20648;-82
2023/12/06 02:24:29;;;;;;;0.60;0.60;;;16.50;42.40;;;;;;4995538;28;20265;-82
2023/12/06 02:26:58;;;;;;;0.40;0.40;;;16.40;42.30;;;;;;4995587;28;20225;-82
2023/12/06 02:29:25;;;;;;;0.60;0.60;;;16.50;42.40;;;;;;4996351;28;20217;-82
2023/12/06 02:31:52;;;;;;;0.45;0.43;;;16.50;42.40;;;;;;4995190;28;20212;-82
2023/12/06 02:34:22;;;;;;;0.50;0.50;;;16.50;42.50;;;;;;4996106;28;20201;-82
2023/12/06 02:36:50;;;;;;;0.50;0.50;;;16.50;42.50;;;;;;4995821;28;20248;-82
2023/12/06 02:39:17;;;;;;;0.40;0.40;;;16.50;42.40;;;;;;4995528;28;20225;-82
2023/12/06 02:41:45;;;;;;;0.60;0.60;;;16.50;42.30;;;;;;4995125;28;20694;-82
2023/12/06 02:44:13;;;;;;;0.70;0.70;;;16.50;42.30;;;;;;5000037;28;20546;-82
2023/12/06 02:46:41;;;;;;;0.50;0.50;;;16.50;42.30;;;;;;5001114;28;20216;-82
2023/12/06 02:49:08;;;;;;;0.70;0.70;;;16.50;42.30;;;;;;4985546;28;20244;-82
2023/12/06 02:51:35;;;;;;;0.65;0.65;;;16.50;42.30;;;;;;5001714;28;20236;-82
2023/12/06 02:54:02;;;;;;;0.70;0.70;;;16.50;42.30;;;;;;5002516;28;20269;-82
2023/12/06 02:56:29;;;;;;;0.60;0.60;;;16.50;42.30;;;;;;5002214;28;20221;-82
2023/12/06 02:58:56;;;;;;;0.50;0.50;;;16.50;42.30;;;;;;5003329;28;20607;-82
2023/12/06 03:01:24;;;;;;;0.65;0.65;;;16.40;42.20;;;;;;5003170;28;20714;-82
2023/12/06 03:03:51;;;;;;;0.50;0.50;;;16.50;42.30;;;;;;5003779;28;20268;-82
2023/12/06 03:06:18;;;;;;;0.43;0.43;;;16.50;42.30;;;;;;5004506;28;20662;-82
2023/12/06 03:08:45;;;;;;;0.63;0.60;;;16.50;42.90;;;;;;5003885;28;20336;-82
2023/12/06 03:11:12;;;;;;;0.60;0.60;;;16.40;42.30;;;;;;5004308;28;20205;-82
2023/12/06 03:13:39;;;;;;;0.30;0.30;;;16.50;42.40;;;;;;5005358;28;20546;-82
2023/12/06 03:16:07;;;;;;;0.60;0.60;;;16.50;42.40;;;;;;5004924;28;20249;-82
2023/12/06 03:18:36;;;;;;;0.50;0.50;;;16.50;42.40;;;;;;5005862;28;20197;-82
2023/12/06 03:21:04;;;;;;;0.50;0.50;;;16.50;42.40;;;;;;5006588;28;20281;-82
2023/12/06 03:23:31;;;;;;;0.45;0.45;;;16.40;42.40;;;;;;5007313;28;20205;-82
2023/12/06 03:25:58;;;;;;;0.60;0.60;;;16.50;42.50;;;;;;5007297;28;20260;-82
2023/12/06 03:28:25;;;;;;;0.47;0.47;;;16.40;42.50;;;;;;4998403;28;20221;-82
2023/12/06 03:30:52;;;;;;;0.60;0.60;;;16.40;42.50;;;;;;5007276;28;20198;-82
2023/12/06 03:33:19;;;;;;;0.50;0.50;;;16.40;42.40;;;;;;5010213;28;20208;-82
2023/12/06 03:35:48;;;;;;;0.50;0.50;;;16.40;42.40;;;;;;5013922;28;20220;-82
2023/12/06 03:38:15;;;;;;;0.45;0.45;;;16.40;42.40;;;;;;5008139;28;20201;-82
2023/12/06 03:40:42;;;;;;;0.60;0.60;;;16.40;42.40;;;;;;4994860;28;20576;-82
2023/12/06 03:43:09;;;;;;;0.52;0.52;;;16.50;42.50;;;;;;4994489;28;20193;-82
2023/12/06 03:45:38;;;;;;;0.60;0.60;;;16.50;42.40;;;;;;4995387;28;20203;-82
2023/12/06 03:48:06;;;;;;;0.60;0.60;;;16.50;42.40;;;;;;4994994;28;20201;-82
2023/12/06 03:50:33;;;;;;;0.50;0.50;;;16.50;42.40;;;;;;4994692;28;20193;-82
2023/12/06 03:53:01;;;;;;;0.47;0.47;;;16.50;42.30;;;;;;4994386;28;20573;-82
2023/12/06 03:55:28;;;;;;;0.40;0.40;;;16.50;42.30;;;;;;4995552;28;20647;-83
2023/12/06 03:57:55;;;;;;;0.70;0.70;;;16.50;42.30;;;;;;4994096;28;20569;-82
2023/12/06 04:00:24;;;;;;;0.47;0.47;;;16.50;42.30;;;;;;4994537;28;20212;-83
2023/12/06 04:02:50;;;;;;;0.40;0.40;;;16.50;42.30;;;;;;4994431;28;20217;-83
2023/12/06 04:05:17;;;;;;;0.45;0.45;;;16.50;42.30;;;;;;4994321;28;20197;-83
2023/12/06 04:07:45;;;;;;;0.50;0.50;;;16.50;42.30;;;;;;4994070;28;20281;-83
2023/12/06 04:10:14;;;;;;;0.50;0.50;;;16.50;42.30;;;;;;4977615;28;20228;-83
2023/12/06 04:12:41;;;;;;;0.50;0.50;;;16.50;42.30;;;;;;4993916;28;20604;-82
2023/12/06 04:15:09;;;;;;;0.52;0.52;;;16.50;42.20;;;;;;4993934;28;20202;-82
2023/12/06 04:17:36;;;;;;;0.40;0.40;;;16.50;42.30;;;;;;4993704;28;20213;-82
2023/12/06 04:20:05;;;;;;;0.40;0.40;;;16.50;42.20;;;;;;4993809;28;20194;-82
2023/12/06 04:22:32;;;;;;;0.40;0.40;;;16.50;42.30;;;;;;4994041;28;20672;-82
2023/12/06 04:25:00;;;;;;;0.55;0.55;;;16.50;42.40;;;;;;4994505;28;20268;-83
2023/12/06 04:27:28;;;;;;;0.63;0.60;;;16.50;42.40;;;;;;4996091;28;20216;-82
2023/12/06 04:29:57;;;;;;;1.08;0.40;;;16.40;42.30;;;;;;5011612;28;20217;-84
2023/12/06 04:32:24;;;;;;;0.50;0.50;;;16.40;42.40;;;;;;5021319;28;20261;-83
2023/12/06 04:34:54;;;;;;;0.50;0.50;;;16.30;42.40;;;;;;5005480;28;20190;-83
2023/12/06 04:37:20;;;;;;;0.40;0.40;;;16.40;42.60;;;;;;5004631;28;20213;-83
2023/12/06 04:39:48;;;;;;;0.38;0.38;;;16.40;42.60;;;;;;5001873;28;20197;-83
2023/12/06 04:42:15;;;;;;;0.30;0.30;;;16.30;42.50;;;;;;5009290;28;20198;-82
2023/12/06 04:44:43;;;;;;;0.50;0.50;;;16.40;42.60;;;;;;5001778;28;20264;-82
2023/12/06 04:47:10;;;;;;;0.52;0.52;;;16.40;42.80;;;;;;4998005;28;20232;-82
2023/12/06 04:49:37;;;;;;;0.50;0.43;;;16.40;42.60;;;;;;4997306;28;20627;-82
2023/12/06 04:52:05;;;;;;;0.57;0.50;;;16.40;42.50;;;;;;4997189;28;20618;-82
2023/12/06 04:54:32;;;;;;;0.40;0.40;;;16.40;42.50;;;;;;4996995;28;20614;-82
2023/12/06 04:56:59;;;;;;;0.70;0.60;;;16.40;42.40;;;;;;4996926;28;20218;-82
2023/12/06 04:59:26;;;;;;;0.65;0.65;;;16.50;42.40;;;;;;4997870;28;20197;-83
2023/12/06 05:01:55;;;;;;;0.57;0.40;;;16.50;42.30;;;;;;4997473;28;20201;-83
2023/12/06 05:04:23;;;;;;;0.40;0.40;;;16.50;42.30;;;;;;4981026;28;20207;-82
2023/12/06 05:06:50;;;;;;;0.32;0.32;;;16.60;42.30;;;;;;4997259;28;20635;-83
2023/12/06 05:09:17;;;;;;;0.40;0.40;;;16.50;42.20;;;;;;4996956;28;20237;-82
2023/12/06 05:11:44;;;;;;;0.30;0.30;;;16.50;42.20;;;;;;4996685;28;20228;-82
2023/12/06 05:14:11;;;;;;;1.23;0.50;;;16.50;42.20;;;;;;4997565;28;20213;-82
2023/12/06 05:16:39;;;;;;;0.50;0.50;;;16.50;42.30;;;;;;4996927;28;20343;-82
2023/12/06 05:19:07;;;;;;;0.40;0.40;;;16.50;42.30;;;;;;4997080;28;20216;-82
2023/12/06 05:21:34;;;;;;;0.50;0.50;;;16.50;42.30;;;;;;4996401;28;20209;-82
2023/12/06 05:24:01;;;;;;;0.82;0.47;;;16.50;42.20;;;;;;4996776;28;20554;-82
2023/12/06 05:26:28;;;;;;;0.30;0.30;;;16.50;42.20;;;;;;4996665;28;20217;-83
2023/12/06 05:28:55;;;;;;;0.40;0.40;;;16.50;42.30;;;;;;4996836;28;20308;-83
2023/12/06 05:31:22;;;;;;;0.38;0.38;;;16.50;42.10;;;;;;4997105;28;20190;-83
2023/12/06 05:33:51;;;;;;;0.38;0.38;;;16.50;42.10;;;;;;4998624;28;20225;-83
2023/12/06 05:36:21;;;;;;;0.38;0.38;;;16.60;42.30;;;;;;5002225;28;20221;-83
2023/12/06 05:38:54;;;;;;;0.30;0.30;;;16.60;42.20;;;;;;4986425;28;20204;-83
2023/12/06 05:41:22;;;;;;;0.50;0.50;;;16.60;42.20;;;;;;4981721;28;20248;-83
2023/12/06 05:43:50;;;;;;;0.40;0.40;;;16.60;42.20;;;;;;4995678;28;20221;-82
2023/12/06 05:46:18;;;;;;;0.50;0.50;;;16.60;42.30;;;;;;4980669;28;20225;-82
2023/12/06 05:48:45;;;;;;;0.30;0.30;;;16.60;42.20;;;;;;4995968;28;20217;-82
2023/12/06 05:51:13;;;;;;;0.50;0.50;;;16.60;42.20;;;;;;4996207;28;20224;-82
2023/12/06 05:53:42;;;;;;;0.55;0.55;;;16.60;42.20;;;;;;4996051;28;20201;-82
2023/12/06 05:56:10;;;;;;;0.57;0.40;;;16.60;42.10;;;;;;4995818;28;20222;-82
2023/12/06 05:58:39;;;;;;;0.30;0.30;;;16.60;42.10;;;;;;4995623;28;20202;-82
2023/12/06 06:01:07;;;;;;;0.50;0.50;;;16.60;42.10;;;;;;4995534;28;20292;-82
2023/12/06 06:03:35;;;;;;;0.45;0.45;;;16.60;42.10;;;;;;4995563;28;20236;-82
2023/12/06 06:06:06;;;;;;;0.30;0.30;;;16.60;42.10;;;;;;4995654;28;20221;-82
2023/12/06 06:08:33;;;;;;;0.50;0.50;;;16.60;42.10;;;;;;4995749;28;20197;-82
2023/12/06 06:11:01;;;;;;;1.75;0.47;;;16.60;42.10;;;;;;4995461;28;20197;-82
2023/12/06 06:13:29;;;;;;;0.30;0.30;;;16.60;42.10;;;;;;4995412;28;20216;-82
2023/12/06 06:15:56;;;;;;;0.40;0.40;;;16.60;42.10;;;;;;4995424;28;20253;-82
2023/12/06 06:18:24;;;;;;;0.40;0.40;;;16.60;42.10;;;;;;4995536;28;20205;-82
2023/12/06 06:20:51;;;;;;;0.40;0.40;;;16.60;42.10;;;;;;4995485;28;20197;-82
2023/12/06 06:23:18;;;;;;;0.35;0.35;;;16.60;42.10;;;;;;4995386;28;20667;-82
2023/12/06 06:25:45;;;;;;;0.30;0.30;;;16.60;42.10;;;;;;4995321;28;20233;-82
2023/12/06 06:28:15;;;;;;;0.30;0.30;;;16.60;42.00;;;;;;4996051;28;20205;-82
2023/12/06 06:30:42;;;;;;;0.40;0.40;;;16.60;42.10;;;;;;4997934;28;20228;-82
2023/12/06 06:33:09;;;;;;;0.40;0.40;;;16.60;42.10;;;;;;4999543;28;20205;-82
2023/12/06 06:35:36;;;;;;;0.40;0.40;;;16.60;42.10;;;;;;4997695;28;20198;-83
2023/12/06 06:38:03;;;;;;;0.50;0.30;;;16.60;42.10;;;;;;4978977;28;20198;-82
2023/12/06 06:40:30;;;;;;;0.47;0.47;;;16.50;42.60;;;;;;4994822;28;20200;-82
2023/12/06 06:42:57;;;;;;;0.30;0.30;;;16.60;42.20;;;;;;4978873;28;20189;-82
2023/12/06 06:45:26;;;;;;;0.50;0.50;;;16.50;42.00;;;;;;4994557;28;20205;-82
2023/12/06 06:47:54;;;;;;;0.50;0.50;;;16.50;42.10;;;;;;4994742;28;20220;-82
2023/12/06 06:50:23;;;;;;;0.30;0.30;;;16.50;42.00;;;;;;4995026;28;20217;-83
2023/12/06 06:52:50;;;;;;;1.15;0.65;;;16.50;42.00;;;;;;4994598;28;20208;-82
2023/12/06 06:55:17;;;;;;;0.47;0.47;;;16.60;42.10;;;;;;4994573;28;20201;-82
2023/12/06 06:57:44;;;;;;;0.47;0.45;;;16.60;42.00;;;;;;4998539;28;20614;-82
2023/12/06 07:00:13;;;;;;;0.40;0.40;;;16.60;41.90;;;;;;4994529;28;20755;-82
2023/12/06 07:02:41;;;;;;;0.40;0.40;;;16.60;41.90;;;;;;4994335;28;20193;-82
2023/12/06 07:05:12;;;;;;;0.40;0.40;;;16.60;41.90;;;;;;4994156;28;20201;-82
2023/12/06 07:07:39;;;;;;;0.40;0.40;;;16.60;42.00;;;;;;4994143;28;20228;-82
2023/12/06 07:10:08;;;;;;;0.50;0.50;;;16.50;41.90;;;;;;4994131;28;20700;-82
2023/12/06 07:12:35;;;;;;;0.40;0.40;;;16.50;42.00;;;;;;4994801;28;20197;-82
2023/12/06 07:15:02;;;;;;;0.47;0.47;;;16.50;42.10;;;;;;5004679;23;20691;-81
2023/12/06 07:17:29;;;;;;;0.40;0.40;;;16.50;42.10;;;;;;4994982;28;20589;-81
2023/12/06 07:19:58;;;;;;;0.57;0.57;;;16.50;42.10;;;;;;4994910;28;20239;-81
2023/12/06 07:22:25;;;;;;;0.63;0.63;;;16.50;42.80;;;;;;4995539;28;20618;-81
2023/12/06 07:24:52;;;;;;;0.52;0.52;;;16.50;42.20;;;;;;4995785;28;20288;-81
2023/12/06 07:27:19;;;;;;;0.40;0.40;;;16.60;42.10;;;;;;4995130;28;20216;-81
2023/12/06 07:29:47;;;;;;;0.50;0.50;;;16.60;42.10;;;;;;4994837;28;20217;-81
2023/12/06 07:32:14;;;;;;;0.40;0.40;;;16.60;42.00;;;;;;4995116;28;20197;-81
2023/12/06 07:34:41;;;;;;;0.60;0.60;;;16.60;41.90;;;;;;4994779;28;20204;-81
2023/12/06 07:37:10;;;;;;;0.55;0.55;;;16.60;42.10;;;;;;4995144;28;20221;-81
2023/12/06 07:39:37;;;;;;;0.50;0.50;;;16.60;42.20;;;;;;4993612;28;20197;-81
2023/12/06 07:42:04;;;;;;;0.47;0.47;;;16.50;42.10;;;;;;4993726;28;20266;-81
2023/12/06 07:44:31;;;;;;;0.70;0.70;;;16.50;42.20;;;;;;4993888;28;20189;-81
2023/12/06 07:46:58;;;;;;;0.40;0.40;;;16.50;42.30;;;;;;4993771;28;20213;-81
2023/12/06 07:49:25;;;;;;;0.40;0.40;;;16.50;42.30;;;;;;4993385;28;20304;-81
2023/12/06 07:51:52;;;;;;;0.60;0.60;;;16.50;42.30;;;;;;4995009;28;20188;-81
2023/12/06 07:54:20;;;;;;;0.50;0.50;;;16.50;42.30;;;;;;4993295;28;20197;-81
2023/12/06 07:56:47;;;;;;;0.50;0.50;;;16.50;42.30;;;;;;4993283;28;20236;-81
2023/12/06 07:59:15;;;;;;;0.60;0.60;;;16.50;42.20;;;;;;4993309;28;20208;-81
2023/12/06 08:01:43;;;;;;;0.60;0.60;;;16.50;42.20;;;;;;4993599;28;20652;-81
2023/12/06 08:04:10;;;;;;;0.77;0.77;;;16.60;42.30;;;;;;4977525;28;20201;-81
2023/12/06 08:06:37;;;;;;;0.52;0.52;;;16.50;42.10;;;;;;4995595;28;20722;-81
2023/12/06 08:09:10;;;;;;;0.95;0.60;;;16.60;42.20;;;;;;4997260;28;20244;-81
2023/12/06 08:11:39;;;;;;;0.60;0.55;;;16.60;42.10;;;;;;4997501;28;20284;-81
2023/12/06 08:14:06;;;;;;;0.57;0.57;;;16.60;42.10;;;;;;4997314;28;20201;-81
2023/12/06 08:16:33;;;;;;;0.50;0.50;;;16.60;42.20;;;;;;4997034;28;20225;-81
2023/12/06 08:19:00;;;;;;;0.35;0.35;;;16.60;42.20;;;;;;4982083;28;20209;-81
2023/12/06 08:21:27;;;;;;;0.43;0.43;;;16.60;42.20;;;;;;4996944;28;20280;-81
2023/12/06 08:23:54;;;;;;;0.50;0.50;;;16.60;42.20;;;;;;4996931;28;20217;-81
2023/12/06 08:26:21;;;;;;;0.70;0.70;;;16.60;42.20;;;;;;4996856;28;20221;-81
2023/12/06 08:28:49;;;;;;;0.52;0.52;;;16.60;42.30;;;;;;4997001;28;20649;-81
2023/12/06 08:31:17;;;;;;;1.45;0.70;;;16.60;42.30;;;;;;4998369;28;20228;-81
2023/12/06 08:33:44;;;;;;;0.60;0.60;;;16.60;42.30;;;;;;4996870;28;20208;-81
2023/12/06 08:36:11;;;;;;;0.60;0.60;;;16.60;42.30;;;;;;4996598;28;20225;-81
2023/12/06 08:38:38;;;;;;;0.47;0.47;;;16.60;42.30;;;;;;4996958;28;20201;-81
2023/12/06 08:41:05;;;;;;;0.50;0.50;;;16.60;42.30;;;;;;4996660;28;20639;-81
2023/12/06 08:43:35;;;;;;;0.30;0.30;;;16.50;42.20;;;;;;4996973;28;20216;-81
2023/12/06 08:46:03;;;;;;;0.63;0.63;;;16.60;42.90;;;;;;4996838;28;20276;-81
2023/12/06 08:48:30;;;;;;;0.85;0.80;;;16.60;42.30;;;;;;4996601;28;20664;-81
2023/12/06 08:50:58;;;;;;;0.68;0.68;;;16.60;42.30;;;;;;4997572;28;20221;-81
2023/12/06 08:53:25;;;;;;;0.75;0.75;;;16.60;42.30;;;;;;4964487;28;20201;-81
2023/12/06 08:55:53;;;;;;;0.45;0.45;;;16.60;42.30;;;;;;4996364;28;20332;-80
2023/12/06 08:58:21;;;;;;;0.77;0.77;;;16.60;42.20;;;;;;4996399;28;20204;-80
2023/12/06 09:00:48;;;;;;;0.55;0.55;;;16.60;42.20;;;;;;4997559;28;20248;-80
2023/12/06 09:03:17;;;;;;;0.90;0.90;;;16.60;42.10;;;;;;4996275;28;20205;-80
2023/12/06 09:05:44;;;;;;;0.77;0.77;;;16.60;42.20;;;;;;4996193;28;20726;-80
2023/12/06 09:08:11;;;;;;;0.77;0.77;;;16.60;42.10;;;;;;4996491;28;20201;-80
2023/12/06 09:10:39;;;;;;;0.98;0.98;;;16.60;42.10;;;;;;4996421;28;20224;-80
2023/12/06 09:13:06;;;;;;;1.00;1.00;;;16.60;42.10;;;;;;4997027;28;20201;-80
2023/12/06 09:15:33;;;;;;;1.10;1.10;;;16.60;42.00;;;;;;4996092;28;20216;-80
2023/12/06 09:18:00;;;;;;;1.00;1.00;;;16.60;42.10;;;;;;4979775;28;20201;-80
2023/12/06 09:20:28;;;;;;;1.17;1.10;;;16.60;42.00;;;;;;4996418;28;20649;-80
2023/12/06 09:22:55;;;;;;;1.10;1.10;;;16.60;42.00;;;;;;5007346;28;20194;-80
2023/12/06 09:25:22;;;;;;;1.27;1.20;;;16.60;42.00;;;;;;4979751;28;20201;-80
2023/12/06 09:27:50;;;;;;;0.95;0.95;;;16.60;42.00;;;;;;4995910;28;20256;-80
2023/12/06 09:30:17;;;;;;;1.20;1.10;;;16.60;42.00;;;;;;4995786;28;20291;-80
2023/12/06 09:32:45;;;;;;;1.20;1.20;;;16.60;41.90;;;;;;4996097;28;20204;-80
2023/12/06 09:35:12;;;;;;;1.10;1.10;;;16.60;41.80;;;;;;4995792;28;20208;-80
2023/12/06 09:37:41;;;;;;;1.20;1.10;;;16.70;41.90;;;;;;4979462;28;20667;-80
2023/12/06 09:40:10;;;;;;;1.50;1.40;;;16.60;41.80;;;;;;4995656;28;20193;-80
2023/12/06 09:42:38;;;;;;;1.50;1.40;;;16.60;41.90;;;;;;4979441;28;20197;-80
2023/12/06 09:45:07;;;;;;;1.33;1.23;;;16.60;41.90;;;;;;4995930;28;20206;-80
2023/12/06 09:47:33;;;;;;;1.48;1.38;;;16.60;41.90;;;;;;4995597;28;20312;-80
2023/12/06 09:50:00;;;;;;;1.00;1.00;;;16.60;41.90;;;;;;4996341;28;20209;-80
2023/12/06 09:52:28;;;;;;;1.20;1.20;;;16.60;41.80;;;;;;4995815;28;20252;-80
2023/12/06 09:54:57;;;;;;;1.00;1.00;;;16.70;41.70;;;;;;4979442;28;20202;-80
2023/12/06 09:57:24;;;;;;;1.52;1.42;;;16.70;41.80;;;;;;4995245;28;20217;-80
2023/12/06 09:59:51;;;;;;;1.35;1.25;;;16.70;41.70;;;;;;4995410;28;20734;-81
2023/12/06 10:02:18;;;;;;;1.33;1.20;;;16.70;41.60;;;;;;4995164;28;20252;-81
2023/12/06 10:04:45;;;;;;;1.50;1.40;;;16.80;41.70;;;;;;4995120;28;20194;-81
2023/12/06 10:07:12;;;;;;;1.70;1.60;;;16.80;41.70;;;;;;4995045;28;20221;-81
2023/12/06 10:09:48;;;;;;;1.55;1.45;;;16.80;41.80;;;;;;4995562;28;20201;-81
2023/12/06 10:12:17;;;;;;;1.63;1.52;;;16.70;41.70;;;;;;4995965;28;20243;-81
2023/12/06 10:14:45;;;;;;;1.60;1.50;;;16.70;41.70;;;;;;4995332;28;20223;-81
2023/12/06 10:17:12;;;;;;;1.50;1.40;;;16.70;41.80;;;;;;4995083;28;20221;-81
2023/12/06 10:19:39;;;;;;;1.67;1.58;;;16.70;41.70;;;;;;4999044;28;20243;-81
2023/12/06 10:22:07;;;;;;;1.30;1.20;;;16.70;41.80;;;;;;4999057;28;20197;-81
2023/12/06 10:24:42;;;;;;;1.77;1.67;;;16.70;41.80;;;;;;4998622;28;20202;-81
2023/12/06 10:27:12;;;;;;;1.25;1.15;;;16.70;41.80;;;;;;4998587;28;20227;-81
2023/12/06 10:29:40;;;;;;;1.30;1.27;;;16.70;41.80;;;;;;4998282;28;20197;-81
2023/12/06 10:32:08;;;;;;;1.80;1.70;;;16.70;41.70;;;;;;4982369;28;20595;-81
2023/12/06 10:34:35;;;;;;;1.42;1.33;;;16.70;41.70;;;;;;4998785;28;20197;-81
2023/12/06 10:37:02;;;;;;;1.50;1.40;;;16.70;41.70;;;;;;4998266;28;20205;-81
2023/12/06 10:39:29;;;;;;;1.30;1.30;;;16.70;41.70;;;;;;4998761;28;20237;-81
2023/12/06 10:41:56;;;;;;;1.30;1.30;;;16.70;41.70;;;;;;4998763;28;20656;-81
2023/12/06 10:44:24;;;;;;;1.33;1.33;;;16.70;41.60;;;;;;4982344;28;20197;-81
2023/12/06 10:46:52;;;;;;;1.50;1.40;;;16.70;41.60;;;;;;4998582;28;20229;-81
2023/12/06 10:49:19;;;;;;;1.60;1.50;;;16.70;41.50;;;;;;5015428;28;20189;-81
2023/12/06 10:51:46;;;;;;;1.42;1.33;;;16.70;41.50;;;;;;4998814;28;20222;-81
2023/12/06 10:54:13;;;;;;;1.70;1.60;;;16.80;41.70;;;;;;4998702;28;20225;-81
2023/12/06 10:56:40;;;;;;;1.50;1.40;;;16.70;41.50;;;;;;4998272;28;20224;-81
2023/12/06 10:59:09;;;;;;;1.60;1.50;;;16.70;41.60;;;;;;5001613;28;20667;-80
2023/12/06 11:01:36;;;;;;;1.40;1.30;;;16.80;41.70;;;;;;4996817;28;20565;-80
2023/12/06 11:04:05;;;;;;;1.60;1.50;;;16.80;41.70;;;;;;4994593;28;20197;-81
2023/12/06 11:06:36;;;;;;;1.55;1.30;;;16.80;41.60;;;;;;4994202;28;20719;-81
2023/12/06 11:09:09;;;;;;;1.70;1.60;;;16.80;41.60;;;;;;4978596;28;20229;-81
2023/12/06 11:11:44;;;;;;;1.70;1.60;;;16.80;41.70;;;;;;4993842;28;20225;-81
2023/12/06 11:14:22;;;;;;;1.70;1.60;;;16.80;41.60;;;;;;4993767;28;20323;-81
2023/12/06 11:16:56;;;;;;;1.40;1.30;;;16.80;41.60;;;;;;4993989;28;20256;-81
2023/12/06 11:19:24;;;;;;;1.70;1.60;;;16.70;41.60;;;;;;4993814;28;20292;-81
2023/12/06 11:21:51;;;;;;;1.80;1.70;;;16.80;41.60;;;;;;4993762;28;20617;-81
2023/12/06 11:24:18;;;;;;;1.60;1.50;;;16.70;41.50;;;;;;4993986;28;20560;-81
2023/12/06 11:26:45;;;;;;;1.50;1.40;;;16.80;41.60;;;;;;4993772;28;20248;-81
2023/12/06 11:29:12;;;;;;;2.70;1.92;;;16.80;41.50;;;;;;4993552;28;20206;-81
2023/12/06 11:31:39;;;;;;;1.58;1.48;;;16.80;41.50;;;;;;4993552;28;20222;-81
2023/12/06 11:34:06;;;;;;;1.30;1.20;;;16.80;41.50;;;;;;4994544;28;20232;-81
2023/12/06 11:36:37;;;;;;;1.60;1.50;;;16.80;41.50;;;;;;4993577;28;20316;-81
2023/12/06 11:39:14;;;;;;;1.60;1.50;;;16.80;41.60;;;;;;4993505;28;20563;-81
2023/12/06 11:41:46;;;;;;;1.73;1.63;;;16.80;41.50;;;;;;4993555;28;20189;-81
2023/12/06 11:44:16;;;;;;;1.60;1.50;;;16.80;41.70;;;;;;4993406;28;20204;-81
2023/12/06 11:46:48;;;;;;;1.60;1.50;;;16.80;41.60;;;;;;4977271;28;20319;-81
2023/12/06 11:49:16;;;;;;;1.35;1.25;;;16.80;41.50;;;;;;4993595;28;20189;-81
2023/12/06 11:51:44;;;;;;;1.50;1.40;;;16.80;41.50;;;;;;4993280;28;20213;-81
2023/12/06 11:54:14;;;;;;;1.77;1.67;;;16.80;41.50;;;;;;4993397;28;20212;-81
2023/12/06 11:56:41;;;;;;;1.70;1.60;;;16.80;41.40;;;;;;4993484;28;20228;-81
2023/12/06 11:59:09;;;;;;;1.58;1.48;;;16.80;41.50;;;;;;4993603;28;20229;-81
2023/12/06 12:01:34;;;;;;;1.65;1.52;;;16.80;41.50;;;;;;4993581;28;20193;-81
2023/12/06 12:04:02;;;;;;;1.60;1.50;;;16.80;41.50;;;;;;4993303;28;20201;-81
2023/12/06 12:06:30;;;;;;;1.85;1.65;;;16.80;41.50;;;;;;4993913;28;20304;-81
2023/12/06 12:08:59;;;;;;;1.60;1.50;;;16.80;41.50;;;;;;5012201;28;20230;-81
2023/12/06 12:11:26;;;;;;;1.42;1.33;;;16.70;41.40;;;;;;5010997;28;20211;-81
2023/12/06 12:13:54;;;;;;;1.50;1.40;;;16.70;41.50;;;;;;5018913;28;20186;-82
2023/12/06 12:16:21;;;;;;;1.55;1.45;;;16.70;41.60;;;;;;5019054;28;20268;-81
2023/12/06 12:18:48;;;;;;;1.58;1.48;;;16.70;41.70;;;;;;5018796;28;20245;-81
2023/12/06 12:21:16;;;;;;;1.55;1.45;;;16.70;41.70;;;;;;5018949;28;20241;-81
2023/12/06 12:23:43;;;;;;;1.58;1.48;;;16.70;41.70;;;;;;5007056;28;20217;-81
2023/12/06 12:26:14;;;;;;;1.88;1.77;;;16.70;41.60;;;;;;4997053;28;20244;-81
2023/12/06 12:28:41;;;;;;;1.65;1.55;;;16.70;41.60;;;;;;4993396;28;20264;-81
2023/12/06 12:31:11;;;;;;;1.80;1.70;;;16.70;42.20;;;;;;4993202;28;20240;-81
2023/12/06 12:33:37;;;;;;;1.65;1.55;;;16.80;41.70;;;;;;4994196;28;20197;-81
2023/12/06 12:36:05;;;;;;;1.50;1.40;;;16.80;41.60;;;;;;4993173;28;20263;-81
2023/12/06 12:38:34;;;;;;;1.90;1.80;;;16.80;42.20;;;;;;4992994;28;20240;-81
2023/12/06 12:41:01;;;;;;;1.60;1.50;;;16.80;41.60;;;;;;4992987;28;20656;-81
2023/12/06 12:43:29;;;;;;;1.90;1.80;;;16.80;41.60;;;;;;4993145;28;20205;-81
2023/12/06 12:45:56;;;;;;;1.70;1.60;;;16.80;41.40;;;;;;4993289;28;20280;-81
2023/12/06 12:48:23;;;;;;;1.60;1.50;;;16.80;41.40;;;;;;4993408;28;20201;-81
2023/12/06 12:50:50;;;;;;;1.70;1.60;;;16.80;41.50;;;;;;4993111;28;20291;-81